Time;durP1;ratioP1;P1;durP2;ratioP2;P2;SDS_P1;SDS_P2;PMS_P1;PMS_P2;Temp;Humidity;BMP_temperature;BMP_pressure;BME280_temperature;BME280_humidity;BME280_pressure;Samples;Min_cycle;Max_cycle;Signal;HPM_P1;HPM_P2
2020/12/17 00:01:19;;;;;;;7.23;6.10;;;;;;;;;;4991155;28;20575;-75
2020/12/17 00:03:44;;;;;;;9.60;6.60;;;;;;;;;;4982264;28;20652;-75
2020/12/17 00:06:13;;;;;;;8.97;6.73;;;;;;;;;;4977908;28;20203;-75
2020/12/17 00:08:40;;;;;;;9.53;6.87;;;;;;;;;;4990274;28;20191;-76
2020/12/17 00:11:06;;;;;;;8.13;7.30;;;;;;;;;;4991749;28;20269;-75
2020/12/17 00:13:31;;;;;;;7.10;6.40;;;;;;;;;;4989138;28;20811;-75
2020/12/17 00:15:56;;;;;;;7.77;6.97;;;;;;;;;;4992826;28;20186;-76
2020/12/17 00:18:21;;;;;;;7.83;6.73;;;;;;;;;;4991372;28;20270;-77
2020/12/17 00:20:47;;;;;;;7.67;6.63;;;;;;;;;;4988448;28;20274;-76
2020/12/17 00:23:12;;;;;;;6.93;6.23;;;;;;;;;;4976222;28;20183;-76
2020/12/17 00:25:37;;;;;;;8.00;6.97;;;;;;;;;;4992708;28;20191;-76
2020/12/17 00:28:02;;;;;;;12.63;7.77;;;;;;;;;;4994303;28;20199;-74
2020/12/17 00:30:27;;;;;;;8.50;7.57;;;;;;;;;;5008337;28;20445;-75
2020/12/17 00:32:53;;;;;;;8.47;7.50;;;;;;;;;;5010594;28;20262;-75
2020/12/17 00:35:18;;;;;;;8.47;7.57;;;;;;;;;;5009990;28;20209;-75
2020/12/17 00:37:43;;;;;;;8.77;7.03;;;;;;;;;;4992280;28;20225;-75
2020/12/17 00:40:10;;;;;;;9.03;7.40;;;;;;;;;;4991419;28;20195;-75
2020/12/17 00:42:42;;;;;;;9.67;7.83;;;;;;;;;;4992990;28;20182;-75
2020/12/17 00:45:08;;;;;;;8.77;7.73;;;;;;;;;;4988303;28;20732;-75
2020/12/17 00:47:33;;;;;;;9.47;8.20;;;;;;;;;;4988601;28;20219;-76
2020/12/17 00:49:58;;;;;;;7.83;6.90;;;;;;;;;;4986654;28;20224;-75
2020/12/17 00:52:24;;;;;;;8.37;6.90;;;;;;;;;;4972739;28;20559;-75
2020/12/17 00:54:49;;;;;;;9.27;6.97;;;;;;;;;;4990165;28;20198;-75
2020/12/17 00:57:15;;;;;;;7.23;6.53;;;;;;;;;;4992331;28;20595;-76
2020/12/17 00:59:40;;;;;;;8.40;7.57;;;;;;;;;;4987266;28;20202;-76
2020/12/17 01:02:06;;;;;;;8.00;7.20;;;;;;;;;;4996976;28;20191;-75
2020/12/17 01:04:31;;;;;;;7.40;6.60;;;;;;;;;;4992292;28;20662;-75
2020/12/17 01:06:56;;;;;;;9.27;7.07;;;;;;;;;;4994005;28;20202;-75
2020/12/17 01:09:21;;;;;;;8.87;7.67;;;;;;;;;;4989805;28;20206;-75
2020/12/17 01:11:47;;;;;;;8.70;7.40;;;;;;;;;;4973287;28;20218;-75
2020/12/17 01:14:12;;;;;;;9.27;6.70;;;;;;;;;;4992242;28;20274;-75
2020/12/17 01:16:37;;;;;;;7.73;6.87;;;;;;;;;;4988580;28;20549;-74
2020/12/17 01:19:02;;;;;;;9.07;7.30;;;;;;;;;;4989989;28;20191;-74
2020/12/17 01:21:27;;;;;;;7.43;6.73;;;;;;;;;;4993125;28;20183;-74
2020/12/17 01:23:53;;;;;;;7.63;6.83;;;;;;;;;;4990605;28;20206;-75
2020/12/17 01:26:18;;;;;;;8.43;7.40;;;;;;;;;;4999063;28;20211;-74
2020/12/17 01:28:43;;;;;;;7.13;6.43;;;;;;;;;;4996819;28;20246;-75
2020/12/17 01:31:09;;;;;;;7.37;6.67;;;;;;;;;;4979908;28;20184;-74
2020/12/17 01:33:35;;;;;;;7.43;6.63;;;;;;;;;;4995100;28;20203;-74
2020/12/17 01:36:01;;;;;;;7.30;6.60;;;;;;;;;;4996646;28;20219;-74
2020/12/17 01:38:26;;;;;;;7.97;6.97;;;;;;;;;;4994489;28;20482;-75
2020/12/17 01:40:51;;;;;;;9.53;7.10;;;;;;;;;;4993282;28;20202;-75
2020/12/17 01:43:16;;;;;;;10.20;7.57;;;;;;;;;;4992102;28;20196;-74
2020/12/17 01:45:41;;;;;;;8.97;7.10;;;;;;;;;;4993733;28;20182;-74
2020/12/17 01:48:07;;;;;;;8.40;7.13;;;;;;;;;;4993429;28;21076;-74
2020/12/17 01:50:32;;;;;;;9.73;7.20;;;;;;;;;;4996646;28;20209;-74
2020/12/17 01:52:57;;;;;;;8.30;7.33;;;;;;;;;;4990537;28;20186;-75
2020/12/17 01:55:25;;;;;;;7.60;6.83;;;;;;;;;;4993873;28;20292;-75
2020/12/17 01:57:53;;;;;;;7.97;7.13;;;;;;;;;;4992541;28;20211;-75
2020/12/17 02:00:21;;;;;;;7.60;6.47;;;;;;;;;;4991667;28;20632;-75
2020/12/17 02:02:46;;;;;;;7.47;6.67;;;;;;;;;;4994980;28;20652;-75
2020/12/17 02:05:12;;;;;;;7.63;6.83;;;;;;;;;;4991798;28;20190;-74
2020/12/17 02:07:37;;;;;;;7.20;6.50;;;;;;;;;;4974446;28;20229;-74
2020/12/17 02:10:03;;;;;;;8.07;6.70;;;;;;;;;;5010520;28;20207;-74
2020/12/17 02:12:45;;;;;;;11.77;6.87;;;;;;;;;;4993338;28;20191;-75
2020/12/17 02:15:10;;;;;;;10.50;6.20;;;;;;;;;;4991126;28;20182;-74
2020/12/17 02:17:35;;;;;;;9.17;6.90;;;;;;;;;;4994907;28;20195;-74
2020/12/17 02:20:02;;;;;;;6.73;6.03;;;;;;;;;;4994997;28;20286;-75
2020/12/17 02:22:29;;;;;;;8.23;7.33;;;;;;;;;;4994099;28;20195;-75
2020/12/17 02:24:54;;;;;;;8.17;6.43;;;;;;;;;;4991838;28;20329;-75
2020/12/17 02:27:19;;;;;;;8.67;6.70;;;;;;;;;;4994867;28;20315;-75
2020/12/17 02:29:44;;;;;;;9.40;7.30;;;;;;;;;;4992613;28;20211;-75
2020/12/17 02:32:09;;;;;;;8.57;5.93;;;;;;;;;;4988302;28;20191;-75
2020/12/17 02:34:34;;;;;;;7.50;6.63;;;;;;;;;;4990636;28;20218;-75
2020/12/17 02:36:59;;;;;;;7.83;6.47;;;;;;;;;;4988269;28;20195;-75
2020/12/17 02:39:25;;;;;;;7.10;6.40;;;;;;;;;;5001317;28;20214;-75
2020/12/17 02:41:50;;;;;;;7.20;6.13;;;;;;;;;;4991340;28;20175;-75
2020/12/17 02:44:15;;;;;;;7.93;6.27;;;;;;;;;;4991067;28;20273;-75
2020/12/17 02:46:40;;;;;;;8.40;6.43;;;;;;;;;;4991820;28;20671;-75
2020/12/17 02:49:05;;;;;;;6.43;5.83;;;;;;;;;;4995801;28;20294;-74
2020/12/17 02:51:30;;;;;;;7.43;5.97;;;;;;;;;;4993696;28;20179;-75
2020/12/17 02:53:56;;;;;;;8.40;6.47;;;;;;;;;;4990802;28;20181;-75
2020/12/17 02:56:21;;;;;;;8.50;6.33;;;;;;;;;;4974699;28;20199;-74
2020/12/17 02:58:46;;;;;;;6.73;6.07;;;;;;;;;;4990006;28;20350;-75
2020/12/17 03:01:12;;;;;;;8.37;6.20;;;;;;;;;;4994500;28;20187;-75
2020/12/17 03:03:37;;;;;;;7.17;6.20;;;;;;;;;;4991729;28;20683;-74
2020/12/17 03:06:02;;;;;;;6.83;5.90;;;;;;;;;;4988788;28;20199;-75
2020/12/17 03:08:27;;;;;;;7.30;6.33;;;;;;;;;;4990033;28;20532;-74
2020/12/17 03:10:53;;;;;;;8.73;6.70;;;;;;;;;;4993269;28;20245;-74
2020/12/17 03:13:19;;;;;;;8.57;6.23;;;;;;;;;;4989947;28;20184;-75
2020/12/17 03:15:44;;;;;;;9.37;7.03;;;;;;;;;;4987842;28;20222;-75
2020/12/17 03:18:09;;;;;;;7.80;6.33;;;;;;;;;;4973626;28;20595;-75
2020/12/17 03:20:34;;;;;;;7.60;6.67;;;;;;;;;;4976094;28;20180;-74
2020/12/17 03:22:59;;;;;;;7.50;6.53;;;;;;;;;;4990025;28;20189;-74
2020/12/17 03:25:25;;;;;;;9.57;6.60;;;;;;;;;;4990410;28;21770;-75
2020/12/17 03:27:50;;;;;;;10.37;6.90;;;;;;;;;;4989843;28;20490;-75
2020/12/17 03:30:15;;;;;;;7.40;6.60;;;;;;;;;;4992212;28;20691;-75
2020/12/17 03:32:40;;;;;;;8.43;6.83;;;;;;;;;;4972964;28;20183;-75
2020/12/17 03:35:05;;;;;;;10.03;6.77;;;;;;;;;;4989895;28;20184;-74
2020/12/17 03:37:30;;;;;;;8.97;6.70;;;;;;;;;;4991363;28;20214;-75
2020/12/17 03:39:56;;;;;;;12.13;7.23;;;;;;;;;;4989785;28;20269;-74
2020/12/17 03:42:21;;;;;;;8.63;7.50;;;;;;;;;;4991127;28;20199;-75
2020/12/17 03:44:46;;;;;;;10.10;7.53;;;;;;;;;;4972539;28;20183;-74
2020/12/17 03:47:12;;;;;;;9.40;7.53;;;;;;;;;;4985791;28;20221;-75
2020/12/17 03:49:37;;;;;;;10.80;7.90;;;;;;;;;;4993494;28;20315;-74
2020/12/17 03:52:02;;;;;;;12.07;8.20;;;;;;;;;;4990475;28;20626;-75
2020/12/17 03:54:27;;;;;;;12.13;9.10;;;;;;;;;;4993513;28;20206;-74
2020/12/17 03:56:52;;;;;;;11.83;9.53;;;;;;;;;;5005809;23;20344;-70
2020/12/17 03:59:18;;;;;;;11.70;9.00;;;;;;;;;;5011621;28;20175;-70
2020/12/17 04:01:43;;;;;;;15.93;10.67;;;;;;;;;;4999731;28;20193;-71
2020/12/17 04:04:08;;;;;;;11.80;9.40;;;;;;;;;;4995422;28;20245;-71
2020/12/17 04:06:34;;;;;;;12.90;10.80;;;;;;;;;;4995943;28;20289;-70
2020/12/17 04:08:59;;;;;;;13.93;10.30;;;;;;;;;;4991989;28;20210;-71
2020/12/17 04:11:24;;;;;;;13.90;10.43;;;;;;;;;;4991012;28;20569;-71
2020/12/17 04:13:49;;;;;;;16.53;11.00;;;;;;;;;;4994231;28;20210;-71
2020/12/17 04:16:14;;;;;;;12.65;10.40;;;;;;;;;;4990193;28;20203;-71
2020/12/17 04:18:40;;;;;;;16.07;12.97;;;;;;;;;;4990266;28;20257;-71
2020/12/17 04:21:05;;;;;;;15.00;11.27;;;;;;;;;;4996208;28;20257;-70
2020/12/17 04:23:30;;;;;;;13.20;11.77;;;;;;;;;;4990883;28;20179;-71
2020/12/17 04:25:55;;;;;;;14.65;11.25;;;;;;;;;;4988541;28;20187;-71
2020/12/17 04:28:20;;;;;;;11.97;10.43;;;;;;;;;;4994451;28;20192;-70
2020/12/17 04:30:45;;;;;;;13.10;11.63;;;;;;;;;;4993174;28;20207;-71
2020/12/17 04:33:11;;;;;;;12.93;11.10;;;;;;;;;;4993571;28;20178;-71
2020/12/17 04:35:36;;;;;;;13.73;11.17;;;;;;;;;;4990355;28;20183;-70
2020/12/17 04:38:02;;;;;;;14.33;11.77;;;;;;;;;;4990948;28;20582;-70
2020/12/17 04:40:27;;;;;;;13.50;11.50;;;;;;;;;;4989355;28;20179;-71
2020/12/17 04:42:52;;;;;;;16.23;12.33;;;;;;;;;;4993034;28;20664;-71
2020/12/17 04:45:18;;;;;;;13.93;12.00;;;;;;;;;;4990012;28;21724;-70
2020/12/17 04:47:47;;;;;;;14.63;11.47;;;;;;;;;;4992533;28;20200;-71
2020/12/17 04:50:15;;;;;;;13.67;11.13;;;;;;;;;;5004027;28;20218;-71
2020/12/17 04:52:41;;;;;;;15.87;12.67;;;;;;;;;;4991900;28;20175;-71
2020/12/17 04:55:06;;;;;;;15.27;12.13;;;;;;;;;;4995372;28;20230;-71
2020/12/17 04:57:32;;;;;;;15.07;12.17;;;;;;;;;;4995336;28;20217;-70
2020/12/17 04:59:57;;;;;;;14.03;12.23;;;;;;;;;;4997685;28;20174;-70
2020/12/17 05:02:23;;;;;;;16.33;12.43;;;;;;;;;;4993476;28;20186;-71
2020/12/17 05:04:49;;;;;;;14.90;12.30;;;;;;;;;;4996096;28;20178;-71
2020/12/17 05:07:15;;;;;;;17.13;14.27;;;;;;;;;;4997080;28;20210;-71
2020/12/17 05:09:41;;;;;;;16.40;14.10;;;;;;;;;;4993805;28;20685;-70
2020/12/17 05:12:06;;;;;;;15.93;13.27;;;;;;;;;;5010054;28;20198;-70
2020/12/17 05:14:32;;;;;;;19.90;14.23;;;;;;;;;;5012371;28;20189;-70
2020/12/17 05:16:57;;;;;;;16.97;13.97;;;;;;;;;;5001775;28;20214;-71
2020/12/17 05:19:23;;;;;;;16.13;13.40;;;;;;;;;;4993784;28;20205;-70
2020/12/17 05:21:49;;;;;;;16.57;14.10;;;;;;;;;;4996813;28;20594;-70
2020/12/17 05:24:14;;;;;;;17.20;13.70;;;;;;;;;;4994426;28;20190;-70
2020/12/17 05:26:39;;;;;;;16.53;13.80;;;;;;;;;;4997225;28;20211;-70
2020/12/17 05:29:05;;;;;;;18.63;15.30;;;;;;;;;;4997220;28;20214;-71
2020/12/17 05:31:34;;;;;;;19.13;14.60;;;;;;;;;;4993861;28;20181;-71
2020/12/17 05:34:05;;;;;;;18.30;15.47;;;;;;;;;;4993146;28;20218;-70
2020/12/17 05:36:31;;;;;;;19.30;14.93;;;;;;;;;;4997016;28;20238;-70
2020/12/17 05:39:07;;;;;;;18.53;14.50;;;;;;;;;;4990297;28;20737;-71
2020/12/17 05:41:33;;;;;;;19.97;15.17;;;;;;;;;;4997088;28;20671;-70
2020/12/17 05:44:07;;;;;;;19.80;16.20;;;;;;;;;;5011321;28;20245;-70
2020/12/17 05:46:36;;;;;;;19.43;16.47;;;;;;;;;;5002090;28;20787;-70
2020/12/17 05:49:11;;;;;;;20.27;16.93;;;;;;;;;;4995630;28;20253;-70
2020/12/17 05:51:37;;;;;;;19.70;14.40;;;;;;;;;;4998610;28;20562;-71
2020/12/17 05:54:02;;;;;;;20.53;15.93;;;;;;;;;;4991705;28;20183;-70
2020/12/17 05:56:29;;;;;;;21.37;15.73;;;;;;;;;;4991658;28;20222;-71
2020/12/17 05:59:00;;;;;;;22.07;16.20;;;;;;;;;;4993335;28;20183;-71
2020/12/17 06:01:27;;;;;;;20.50;16.40;;;;;;;;;;4993447;28;20194;-71
2020/12/17 06:03:52;;;;;;;19.07;16.33;;;;;;;;;;4991166;28;20191;-70
2020/12/17 06:06:18;;;;;;;19.23;15.77;;;;;;;;;;5002416;28;20203;-70
2020/12/17 06:08:47;;;;;;;19.73;15.70;;;;;;;;;;5012190;28;20748;-70
2020/12/17 06:11:15;;;;;;;20.50;16.30;;;;;;;;;;5002182;28;20326;-70
2020/12/17 06:13:41;;;;;;;18.80;15.10;;;;;;;;;;4991099;28;20245;-70
2020/12/17 06:16:07;;;;;;;21.60;15.60;;;;;;;;;;4991750;28;20195;-70
2020/12/17 06:18:36;;;;;;;18.50;15.17;;;;;;;;;;4994572;28;20191;-70
2020/12/17 06:21:02;;;;;;;20.03;14.60;;;;;;;;;;4995313;28;20187;-71
2020/12/17 06:23:29;;;;;;;23.57;15.57;;;;;;;;;;4997551;28;20187;-70
2020/12/17 06:25:56;;;;;;;18.67;15.37;;;;;;;;;;4993049;28;20189;-71
2020/12/17 06:28:27;;;;;;;26.23;16.27;;;;;;;;;;4992404;28;20278;-70
2020/12/17 06:30:55;;;;;;;22.87;15.33;;;;;;;;;;5000760;28;20361;-71
2020/12/17 06:33:21;;;;;;;19.67;14.83;;;;;;;;;;4992945;28;20246;-71
2020/12/17 06:35:51;;;;;;;21.40;16.13;;;;;;;;;;4995392;28;20183;-70
2020/12/17 06:38:16;;;;;;;19.90;14.73;;;;;;;;;;4991896;28;20215;-70
2020/12/17 06:40:42;;;;;;;19.97;16.63;;;;;;;;;;4990835;28;20186;-71
2020/12/17 06:43:13;;;;;;;17.97;14.30;;;;;;;;;;4992918;28;20566;-70
2020/12/17 06:45:39;;;;;;;18.83;14.70;;;;;;;;;;4991014;28;20195;-73
2020/12/17 06:48:23;;;;;;;21.53;14.93;;;;;;;;;;4992681;28;20870;-71
2020/12/17 06:50:48;;;;;;;21.07;14.97;;;;;;;;;;4992933;28;20707;-71
2020/12/17 06:53:14;;;;;;;18.47;14.33;;;;;;;;;;4992595;28;20277;-73
2020/12/17 06:55:43;;;;;;;20.83;14.93;;;;;;;;;;4993288;28;20517;-70
2020/12/17 06:58:21;;;;;;;18.10;14.87;;;;;;;;;;4993501;28;20211;-71
2020/12/17 07:00:55;;;;;;;20.20;15.10;;;;;;;;;;4993862;28;20182;-70
2020/12/17 07:03:40;;;;;;;20.10;15.47;;;;;;;;;;4993331;28;20189;-73
2020/12/17 07:06:20;;;;;;;19.87;14.33;;;;;;;;;;4992906;28;20191;-70
2020/12/17 07:08:47;;;;;;;21.47;14.67;;;;;;;;;;4991146;28;20701;-70
2020/12/17 07:11:30;;;;;;;22.60;16.13;;;;;;;;;;4994031;28;20565;-72
2020/12/17 07:13:56;;;;;;;22.97;16.57;;;;;;;;;;4991077;28;21033;-72
2020/12/17 07:16:21;;;;;;;24.43;17.43;;;;;;;;;;4992900;28;20742;-72
2020/12/17 07:18:46;;;;;;;21.13;17.50;;;;;;;;;;4991265;28;20171;-71
2020/12/17 07:21:11;;;;;;;24.50;18.47;;;;;;;;;;4992444;28;20614;-73
2020/12/17 07:23:40;;;;;;;23.60;19.23;;;;;;;;;;4992026;28;20191;-72
2020/12/17 07:26:09;;;;;;;26.27;18.20;;;;;;;;;;4992270;28;20193;-73
2020/12/17 07:28:35;;;;;;;24.77;18.67;;;;;;;;;;4991495;28;20183;-73
2020/12/17 07:31:00;;;;;;;27.77;20.03;;;;;;;;;;4994173;28;20306;-73
2020/12/17 07:33:37;;;;;;;23.10;18.40;;;;;;;;;;4992302;28;20216;-71
2020/12/17 07:36:03;;;;;;;25.37;18.00;;;;;;;;;;4994349;28;20190;-72
2020/12/17 07:38:28;;;;;;;25.20;19.90;;;;;;;;;;4992343;28;20179;-73
2020/12/17 07:40:53;;;;;;;27.67;18.53;;;;;;;;;;4993905;28;20183;-73
2020/12/17 07:43:20;;;;;;;25.43;19.03;;;;;;;;;;4994733;28;20742;-72
2020/12/17 07:45:47;;;;;;;27.77;18.90;;;;;;;;;;4995593;28;20179;-72
2020/12/17 07:48:31;;;;;;;28.17;19.63;;;;;;;;;;4991655;28;20207;-72
2020/12/17 07:50:56;;;;;;;24.20;18.13;;;;;;;;;;4998927;28;20210;-72
2020/12/17 07:53:22;;;;;;;26.00;18.77;;;;;;;;;;4991814;28;20183;-72
2020/12/17 07:55:48;;;;;;;24.23;18.60;;;;;;;;;;4995781;28;20186;-72
2020/12/17 07:58:15;;;;;;;24.07;18.67;;;;;;;;;;5010155;28;20210;-72
2020/12/17 08:00:42;;;;;;;23.00;18.27;;;;;;;;;;5007583;28;20190;-73
2020/12/17 08:03:07;;;;;;;28.27;19.40;;;;;;;;;;5008460;28;20206;-72
2020/12/17 08:05:32;;;;;;;22.47;18.30;;;;;;;;;;5010635;28;20652;-72
2020/12/17 08:07:57;;;;;;;23.13;19.30;;;;;;;;;;4992536;28;20222;-70
2020/12/17 08:10:22;;;;;;;23.90;18.63;;;;;;;;;;4996036;28;20214;-73
2020/12/17 08:12:48;;;;;;;24.20;17.67;;;;;;;;;;4995900;28;20190;-73
2020/12/17 08:15:13;;;;;;;23.97;18.37;;;;;;;;;;4997024;28;20178;-73
2020/12/17 08:17:38;;;;;;;23.97;18.30;;;;;;;;;;4996767;28;20201;-72
2020/12/17 08:20:03;;;;;;;21.93;16.93;;;;;;;;;;4996587;28;20198;-72
2020/12/17 08:22:29;;;;;;;22.60;18.20;;;;;;;;;;4995665;28;20189;-70
2020/12/17 08:24:55;;;;;;;22.90;17.10;;;;;;;;;;4991833;28;20620;-70
2020/12/17 08:27:21;;;;;;;22.43;16.20;;;;;;;;;;4996541;28;20451;-70
2020/12/17 08:29:46;;;;;;;21.07;16.67;;;;;;;;;;4998979;28;20213;-71
2020/12/17 08:32:12;;;;;;;22.07;15.47;;;;;;;;;;4996212;28;20179;-73
2020/12/17 08:34:37;;;;;;;17.60;15.53;;;;;;;;;;4997531;28;20183;-71
2020/12/17 08:37:02;;;;;;;20.17;15.30;;;;;;;;;;4997840;28;20210;-70
2020/12/17 08:39:27;;;;;;;19.80;15.03;;;;;;;;;;4997002;28;20241;-73
2020/12/17 08:41:53;;;;;;;20.67;13.90;;;;;;;;;;4997317;28;20191;-70
2020/12/17 08:44:28;;;;;;;17.03;14.27;;;;;;;;;;4999044;28;20225;-70
2020/12/17 08:46:58;;;;;;;20.47;13.20;;;;;;;;;;4996280;28;20214;-71
2020/12/17 08:49:24;;;;;;;16.20;13.20;;;;;;;;;;5003660;28;20294;-73
2020/12/17 08:51:49;;;;;;;17.10;12.97;;;;;;;;;;5001162;28;20269;-71
2020/12/17 08:54:23;;;;;;;16.03;13.40;;;;;;;;;;4996447;28;20184;-70
2020/12/17 08:56:59;;;;;;;15.70;12.20;;;;;;;;;;4998944;28;20645;-70
2020/12/17 08:59:24;;;;;;;17.93;13.23;;;;;;;;;;4997245;28;20218;-71
2020/12/17 09:01:50;;;;;;;19.80;12.83;;;;;;;;;;4996527;28;20362;-72
2020/12/17 09:04:15;;;;;;;14.00;11.77;;;;;;;;;;4996271;28;20199;-72
2020/12/17 09:06:40;;;;;;;14.47;11.43;;;;;;;;;;4994344;28;20206;-72
2020/12/17 09:09:24;;;;;;;14.87;10.23;;;;;;;;;;4999368;28;20715;-71
2020/12/17 09:11:50;;;;;;;11.83;10.27;;;;;;;;;;5016774;28;20660;-71
2020/12/17 09:14:21;;;;;;;15.33;10.40;;;;;;;;;;4995571;28;20175;-71
2020/12/17 09:16:48;;;;;;;16.40;10.13;;;;;;;;;;4993140;28;20217;-71
2020/12/17 09:19:13;;;;;;;13.90;9.27;;;;;;;;;;4994396;28;20255;-71
2020/12/17 09:21:58;;;;;;;12.77;8.70;;;;;;;;;;4997920;28;20234;-71
2020/12/17 09:24:31;;;;;;;17.50;9.20;;;;;;;;;;4992689;28;20237;-71
2020/12/17 09:26:56;;;;;;;15.20;8.87;;;;;;;;;;4992812;28;20209;-71
2020/12/17 09:29:21;;;;;;;14.57;7.50;;;;;;;;;;5006147;28;20226;-72
2020/12/17 09:31:47;;;;;;;9.23;6.60;;;;;;;;;;4996035;28;20202;-71
2020/12/17 09:34:13;;;;;;;9.20;7.03;;;;;;;;;;4995528;28;20660;-71
2020/12/17 09:36:40;;;;;;;10.03;5.87;;;;;;;;;;4997114;28;20194;-74
2020/12/17 09:39:07;;;;;;;9.07;6.50;;;;;;;;;;4997730;28;22265;-72
2020/12/17 09:41:32;;;;;;;7.77;6.40;;;;;;;;;;4995777;28;20194;-72
2020/12/17 09:43:58;;;;;;;10.93;6.27;;;;;;;;;;4995368;28;20183;-71
2020/12/17 09:46:23;;;;;;;9.80;6.70;;;;;;;;;;4996786;28;20222;-72
2020/12/17 09:48:48;;;;;;;8.67;6.17;;;;;;;;;;4995811;28;20182;-71
2020/12/17 09:51:13;;;;;;;10.67;6.27;;;;;;;;;;5001138;28;20312;-71
2020/12/17 09:53:39;;;;;;;7.63;5.90;;;;;;;;;;4994286;28;20225;-71
2020/12/17 09:58:46;;;;;;;7.70;6.63;;;;;;;;;;4993830;28;20242;-75
2020/12/17 10:01:11;;;;;;;9.20;6.13;;;;;;;;;;4997414;28;20245;-75
2020/12/17 10:03:37;;;;;;;8.00;5.23;;;;;;;;;;4995266;28;20192;-75
2020/12/17 10:06:02;;;;;;;7.43;6.27;;;;;;;;;;4997382;28;20195;-75
2020/12/17 10:08:27;;;;;;;9.43;5.97;;;;;;;;;;4978369;28;20261;-75
2020/12/17 10:10:52;;;;;;;6.13;5.00;;;;;;;;;;4975152;28;20203;-75
2020/12/17 10:13:18;;;;;;;7.23;5.33;;;;;;;;;;4974491;28;20234;-74
2020/12/17 10:15:43;;;;;;;8.57;4.80;;;;;;;;;;4976534;28;20209;-75
2020/12/17 10:18:08;;;;;;;7.80;5.97;;;;;;;;;;4974120;28;20838;-76
2020/12/17 10:20:33;;;;;;;9.73;5.07;;;;;;;;;;4974254;28;20652;-76
2020/12/17 10:22:58;;;;;;;8.37;5.80;;;;;;;;;;4976891;28;20188;-74
2020/12/17 10:25:24;;;;;;;10.50;5.67;;;;;;;;;;4974018;28;20645;-74
2020/12/17 10:27:50;;;;;;;5.93;4.67;;;;;;;;;;4974571;28;20207;-74
2020/12/17 10:30:16;;;;;;;13.67;5.10;;;;;;;;;;4975386;28;20234;-74
2020/12/17 10:32:41;;;;;;;10.80;5.00;;;;;;;;;;4974023;28;20188;-77
2020/12/17 10:35:06;;;;;;;11.37;5.00;;;;;;;;;;4975180;28;20205;-77
2020/12/17 10:37:32;;;;;;;10.07;4.43;;;;;;;;;;4973785;28;20259;-75
2020/12/17 10:39:57;;;;;;;9.30;5.00;;;;;;;;;;4984026;28;20577;-75
2020/12/17 10:42:23;;;;;;;10.20;4.80;;;;;;;;;;4982385;28;20188;-76
2020/12/17 10:44:49;;;;;;;7.50;4.60;;;;;;;;;;4979881;28;20261;-75
2020/12/17 10:47:15;;;;;;;11.07;4.90;;;;;;;;;;4975872;28;20212;-75
2020/12/17 10:49:40;;;;;;;8.30;4.13;;;;;;;;;;4995941;28;20199;-75
2020/12/17 10:52:07;;;;;;;7.65;4.07;;;;;;;;;;4975100;28;20179;-76
2020/12/17 10:54:32;;;;;;;6.97;4.68;;;;;;;;;;4977720;28;20187;-75
2020/12/17 10:56:57;;;;;;;9.73;4.72;;;;;;;;;;4976150;28;20206;-75
2020/12/17 10:59:23;;;;;;;7.78;4.18;;;;;;;;;;4974538;28;20185;-75
2020/12/17 11:01:48;;;;;;;7.57;4.13;;;;;;;;;;4981412;28;20195;-75
2020/12/17 11:04:13;;;;;;;10.80;5.00;;;;;;;;;;4974105;28;20281;-75
2020/12/17 11:06:38;;;;;;;12.03;5.23;;;;;;;;;;4972706;28;20710;-75
2020/12/17 11:09:03;;;;;;;6.37;4.40;;;;;;;;;;4973149;28;20179;-75
2020/12/17 11:11:29;;;;;;;7.80;5.50;;;;;;;;;;4992612;28;20337;-75
2020/12/17 11:13:54;;;;;;;8.47;4.80;;;;;;;;;;4972514;28;20195;-75
2020/12/17 11:16:19;;;;;;;12.00;5.10;;;;;;;;;;4975398;28;20172;-75
2020/12/17 11:18:45;;;;;;;10.70;5.73;;;;;;;;;;4970855;28;20187;-75
2020/12/17 11:21:10;;;;;;;11.90;6.07;;;;;;;;;;4977786;28;20187;-75
2020/12/17 11:23:35;;;;;;;14.33;5.30;;;;;;;;;;4974625;28;20187;-75
2020/12/17 11:26:04;;;;;;;9.73;4.73;;;;;;;;;;4977346;28;20564;-75
2020/12/17 11:28:29;;;;;;;14.23;5.57;;;;;;;;;;4990565;28;20203;-75
2020/12/17 11:30:54;;;;;;;10.03;5.17;;;;;;;;;;4974066;28;20240;-75
2020/12/17 11:33:20;;;;;;;11.63;5.17;;;;;;;;;;4972446;28;20211;-75
2020/12/17 11:35:45;;;;;;;12.63;4.63;;;;;;;;;;4973676;28;20732;-75
2020/12/17 11:38:14;;;;;;;8.93;4.53;;;;;;;;;;4972950;28;20216;-75
2020/12/17 11:40:39;;;;;;;9.80;4.07;;;;;;;;;;4979855;28;20270;-75
2020/12/17 11:43:04;;;;;;;11.17;4.43;;;;;;;;;;4972686;28;20190;-75
2020/12/17 11:45:30;;;;;;;8.53;4.13;;;;;;;;;;4976861;28;20184;-74
2020/12/17 11:47:55;;;;;;;10.33;5.53;;;;;;;;;;4973213;28;20200;-74
2020/12/17 11:50:20;;;;;;;19.77;7.63;;;;;;;;;;4978375;28;20298;-75
2020/12/17 11:52:45;;;;;;;12.83;5.00;;;;;;;;;;4977012;28;20685;-75
2020/12/17 11:55:11;;;;;;;15.93;4.93;;;;;;;;;;4971865;28;20180;-75
2020/12/17 11:57:36;;;;;;;9.40;4.37;;;;;;;;;;4972483;28;20838;-76
2020/12/17 12:00:06;;;;;;;9.30;4.27;;;;;;;;;;4971462;28;20660;-75
2020/12/17 12:02:31;;;;;;;10.67;4.40;;;;;;;;;;4978466;28;20192;-75
2020/12/17 12:04:56;;;;;;;10.33;4.40;;;;;;;;;;4974760;28;20180;-76
2020/12/17 12:07:22;;;;;;;9.17;4.47;;;;;;;;;;4973588;28;20292;-75
2020/12/17 12:09:47;;;;;;;7.63;4.20;;;;;;;;;;4974236;28;20207;-75
2020/12/17 12:12:12;;;;;;;8.33;4.03;;;;;;;;;;4971834;28;20189;-75
2020/12/17 12:14:38;;;;;;;6.23;4.03;;;;;;;;;;4973947;28;20544;-75
2020/12/17 12:17:03;;;;;;;13.03;5.07;;;;;;;;;;4976283;28;20200;-75
2020/12/17 12:19:28;;;;;;;6.63;4.50;;;;;;;;;;4975206;28;20267;-75
2020/12/17 12:21:53;;;;;;;7.77;4.07;;;;;;;;;;4973478;28;20180;-75
2020/12/17 12:24:18;;;;;;;11.00;4.70;;;;;;;;;;4999700;28;20310;-75
2020/12/17 12:26:44;;;;;;;9.83;4.70;;;;;;;;;;4980588;28;20622;-75
2020/12/17 12:29:09;;;;;;;10.67;5.23;;;;;;;;;;4979798;28;20215;-75
2020/12/17 12:31:34;;;;;;;8.53;4.13;;;;;;;;;;4982643;28;20179;-75
2020/12/17 12:33:59;;;;;;;9.63;5.13;;;;;;;;;;4978884;28;20175;-75
2020/12/17 12:36:25;;;;;;;8.23;3.90;;;;;;;;;;4981357;28;20673;-75
2020/12/17 12:38:50;;;;;;;8.73;4.17;;;;;;;;;;4985291;28;20215;-75
2020/12/17 12:41:18;;;;;;;5.80;3.67;;;;;;;;;;4973178;28;20187;-75
2020/12/17 12:43:43;;;;;;;10.57;3.93;;;;;;;;;;4976407;28;20177;-75
2020/12/17 12:46:08;;;;;;;11.73;7.07;;;;;;;;;;4972112;28;20543;-75
2020/12/17 12:48:34;;;;;;;13.60;10.30;;;;;;;;;;4972826;28;20207;-75
2020/12/17 12:51:00;;;;;;;19.60;13.87;;;;;;;;;;4974153;28;20207;-75
2020/12/17 12:53:25;;;;;;;30.77;25.30;;;;;;;;;;4971033;28;20299;-74
2020/12/17 12:55:51;;;;;;;25.23;17.83;;;;;;;;;;4978264;28;20175;-75
2020/12/17 12:58:16;;;;;;;17.03;12.50;;;;;;;;;;4971162;28;20689;-75
2020/12/17 13:00:42;;;;;;;15.63;11.53;;;;;;;;;;4972010;28;20575;-74
2020/12/17 13:03:07;;;;;;;13.50;5.83;;;;;;;;;;4971922;28;20676;-75
2020/12/17 13:05:33;;;;;;;12.27;10.67;;;;;;;;;;4974578;28;20184;-75
2020/12/17 13:07:58;;;;;;;13.43;6.73;;;;;;;;;;4971859;28;20231;-75
2020/12/17 13:10:23;;;;;;;18.30;11.17;;;;;;;;;;4972111;28;20252;-75
2020/12/17 13:12:48;;;;;;;14.23;9.30;;;;;;;;;;4986258;28;20192;-75
2020/12/17 13:15:13;;;;;;;13.17;7.57;;;;;;;;;;4977716;28;20247;-75
2020/12/17 13:17:39;;;;;;;11.60;8.53;;;;;;;;;;4974622;28;20211;-74
2020/12/17 13:20:04;;;;;;;11.40;6.10;;;;;;;;;;4976755;28;20196;-75
2020/12/17 13:22:30;;;;;;;18.40;8.83;;;;;;;;;;4979776;28;20187;-74
2020/12/17 13:24:55;;;;;;;14.50;10.27;;;;;;;;;;4975033;28;20200;-74
2020/12/17 13:27:21;;;;;;;13.57;9.80;;;;;;;;;;4976330;28;20720;-74
2020/12/17 13:29:46;;;;;;;26.87;20.93;;;;;;;;;;4991225;28;20292;-75
2020/12/17 13:32:11;;;;;;;15.87;11.43;;;;;;;;;;4981042;28;20265;-74
2020/12/17 13:34:37;;;;;;;21.20;14.57;;;;;;;;;;4974924;28;20230;-74
2020/12/17 13:37:02;;;;;;;22.80;14.07;;;;;;;;;;4981496;28;20689;-75
2020/12/17 13:39:29;;;;;;;27.30;17.57;;;;;;;;;;4977743;28;20192;-75
2020/12/17 13:41:56;;;;;;;9.37;6.50;;;;;;;;;;4975391;28;20184;-75
2020/12/17 13:44:21;;;;;;;10.70;5.67;;;;;;;;;;4973650;28;20185;-75
2020/12/17 13:46:47;;;;;;;12.73;6.37;;;;;;;;;;4977905;28;20203;-76
2020/12/17 13:49:14;;;;;;;16.03;11.27;;;;;;;;;;4973999;28;20262;-75
2020/12/17 13:51:39;;;;;;;38.67;27.10;;;;;;;;;;4978094;28;20672;-75
2020/12/17 13:54:04;;;;;;;15.93;6.70;;;;;;;;;;4976678;28;20183;-75
2020/12/17 13:56:29;;;;;;;14.27;9.10;;;;;;;;;;4972949;28;20211;-75
2020/12/17 13:58:55;;;;;;;23.63;10.57;;;;;;;;;;4974963;28;20183;-74
2020/12/17 14:01:21;;;;;;;14.97;7.87;;;;;;;;;;4979245;28;20195;-75
2020/12/17 14:03:46;;;;;;;16.90;8.37;;;;;;;;;;4990437;28;20191;-75
2020/12/17 14:06:18;;;;;;;12.57;6.67;;;;;;;;;;4989651;28;20188;-74
2020/12/17 14:08:43;;;;;;;18.10;5.13;;;;;;;;;;4973592;28;20196;-74
2020/12/17 14:11:12;;;;;;;14.60;5.40;;;;;;;;;;4974062;28;20243;-74
2020/12/17 14:13:37;;;;;;;15.30;5.87;;;;;;;;;;4973912;28;20271;-74
2020/12/17 14:16:03;;;;;;;12.70;5.35;;;;;;;;;;4981208;28;20290;-74
2020/12/17 14:18:28;;;;;;;12.27;7.13;;;;;;;;;;4975380;28;20657;-75
2020/12/17 14:20:53;;;;;;;8.77;5.13;;;;;;;;;;4975379;28;20985;-74
2020/12/17 14:23:19;;;;;;;10.80;5.47;;;;;;;;;;4979428;28;20202;-74
2020/12/17 14:25:46;;;;;;;12.73;6.03;;;;;;;;;;4978716;28;20214;-76